sensor_id;sensor_type;location;lat;lon;timestamp;pressure;altitude;pressure_sealevel;temperature
67599;BMP280;62026;39.230;9.122;2023-07-13T00:00:44;100807.84;;;28.29
67599;BMP280;62026;39.230;9.122;2023-07-13T00:03:10;100806.69;;;28.30
67599;BMP280;62026;39.230;9.122;2023-07-13T00:05:40;100805.13;;;28.29
67599;BMP280;62026;39.230;9.122;2023-07-13T00:08:07;100800.00;;;28.27
67599;BMP280;62026;39.230;9.122;2023-07-13T00:10:38;100791.28;;;28.22
67599;BMP280;62026;39.230;9.122;2023-07-13T00:13:04;100784.03;;;28.26
67599;BMP280;62026;39.230;9.122;2023-07-13T00:15:30;100787.09;;;28.24
67599;BMP280;62026;39.230;9.122;2023-07-13T00:17:57;100786.28;;;28.24
67599;BMP280;62026;39.230;9.122;2023-07-13T00:20:25;100776.31;;;28.16
67599;BMP280;62026;39.230;9.122;2023-07-13T00:22:52;100770.66;;;28.21
67599;BMP280;62026;39.230;9.122;2023-07-13T00:25:21;100760.47;;;28.18
67599;BMP280;62026;39.230;9.122;2023-07-13T00:27:51;100755.72;;;28.15
67599;BMP280;62026;39.230;9.122;2023-07-13T00:30:18;100751.06;;;28.15
67599;BMP280;62026;39.230;9.122;2023-07-13T00:32:44;100749.38;;;28.11
67599;BMP280;62026;39.230;9.122;2023-07-13T00:35:12;100729.16;;;27.99
67599;BMP280;62026;39.230;9.122;2023-07-13T00:37:38;100734.19;;;28.09
67599;BMP280;62026;39.230;9.122;2023-07-13T00:40:06;100736.00;;;28.05
67599;BMP280;62026;39.230;9.122;2023-07-13T00:42:33;100740.31;;;28.06
67599;BMP280;62026;39.230;9.122;2023-07-13T00:46:09;100738.50;;;28.11
67599;BMP280;62026;39.230;9.122;2023-07-13T00:47:56;100729.44;;;28.06
67599;BMP280;62026;39.230;9.122;2023-07-13T00:50:23;100730.88;;;28.04
67599;BMP280;62026;39.230;9.122;2023-07-13T00:52:54;100718.31;;;27.99
67599;BMP280;62026;39.230;9.122;2023-07-13T00:55:22;100724.75;;;27.95
67599;BMP280;62026;39.230;9.122;2023-07-13T00:57:48;100730.63;;;27.97
67599;BMP280;62026;39.230;9.122;2023-07-13T01:00:15;100737.31;;;27.99
67599;BMP280;62026;39.230;9.122;2023-07-13T01:02:45;100737.09;;;28.04
67599;BMP280;62026;39.230;9.122;2023-07-13T01:05:17;100745.22;;;28.04
67599;BMP280;62026;39.230;9.122;2023-07-13T01:07:46;100737.59;;;28.06
67599;BMP280;62026;39.230;9.122;2023-07-13T01:10:14;100735.84;;;28.02
67599;BMP280;62026;39.230;9.122;2023-07-13T01:12:40;100730.41;;;28.02
67599;BMP280;62026;39.230;9.122;2023-07-13T01:15:37;100724.47;;;27.88
67599;BMP280;62026;39.230;9.122;2023-07-13T01:18:08;100718.41;;;27.91
67599;BMP280;62026;39.230;9.122;2023-07-13T01:20:36;100715.41;;;27.84
67599;BMP280;62026;39.230;9.122;2023-07-13T01:23:09;100733.88;;;27.90
67599;BMP280;62026;39.230;9.122;2023-07-13T01:25:37;100734.81;;;27.94
67599;BMP280;62026;39.230;9.122;2023-07-13T01:28:06;100735.53;;;28.03
67599;BMP280;62026;39.230;9.122;2023-07-13T01:30:32;100734.81;;;27.94
67599;BMP280;62026;39.230;9.122;2023-07-13T01:32:58;100740.63;;;28.05
67599;BMP280;62026;39.230;9.122;2023-07-13T01:35:26;100732.31;;;28.01
67599;BMP280;62026;39.230;9.122;2023-07-13T01:37:53;100728.72;;;27.97
67599;BMP280;62026;39.230;9.122;2023-07-13T01:40:20;100743.66;;;28.03
67599;BMP280;62026;39.230;9.122;2023-07-13T01:42:47;100742.66;;;28.08
67599;BMP280;62026;39.230;9.122;2023-07-13T01:45:13;100753.19;;;28.09
67599;BMP280;62026;39.230;9.122;2023-07-13T01:47:38;100746.28;;;28.12
67599;BMP280;62026;39.230;9.122;2023-07-13T01:50:05;100749.38;;;28.11
67599;BMP280;62026;39.230;9.122;2023-07-13T01:52:31;100750.94;;;28.12
67599;BMP280;62026;39.230;9.122;2023-07-13T01:54:58;100753.00;;;28.15
67599;BMP280;62026;39.230;9.122;2023-07-13T01:57:24;100754.59;;;28.16
67599;BMP280;62026;39.230;9.122;2023-07-13T01:59:50;100754.91;;;28.14
67599;BMP280;62026;39.230;9.122;2023-07-13T02:02:16;100746.88;;;28.18
67599;BMP280;62026;39.230;9.122;2023-07-13T02:04:42;100748.72;;;28.14
67599;BMP280;62026;39.230;9.122;2023-07-13T02:07:09;100749.94;;;28.16
67599;BMP280;62026;39.230;9.122;2023-07-13T02:09:35;100750.75;;;28.17
67599;BMP280;62026;39.230;9.122;2023-07-13T02:12:01;100743.72;;;28.16
67599;BMP280;62026;39.230;9.122;2023-07-13T02:14:32;100730.47;;;28.14
67599;BMP280;62026;39.230;9.122;2023-07-13T02:16:58;100726.19;;;28.13
67599;BMP280;62026;39.230;9.122;2023-07-13T02:19:24;100727.75;;;28.14
67599;BMP280;62026;39.230;9.122;2023-07-13T02:21:50;100716.91;;;28.14
67599;BMP280;62026;39.230;9.122;2023-07-13T02:24:16;100727.75;;;28.14
67599;BMP280;62026;39.230;9.122;2023-07-13T02:26:45;100733.19;;;28.14
67599;BMP280;62026;39.230;9.122;2023-07-13T02:29:11;100723.47;;;28.13
67599;BMP280;62026;39.230;9.122;2023-07-13T02:31:37;100724.91;;;28.11
67599;BMP280;62026;39.230;9.122;2023-07-13T02:34:03;100719.50;;;28.11
67599;BMP280;62026;39.230;9.122;2023-07-13T02:36:31;100716.78;;;28.11
67599;BMP280;62026;39.230;9.122;2023-07-13T02:39:03;100703.09;;;28.07
67599;BMP280;62026;39.230;9.122;2023-07-13T02:41:29;100694.00;;;28.03
67599;BMP280;62026;39.230;9.122;2023-07-13T02:43:58;100683.91;;;27.91
67599;BMP280;62026;39.230;9.122;2023-07-13T02:46:34;100677.53;;;27.87
67599;BMP280;62026;39.230;9.122;2023-07-13T02:49:00;100688.94;;;27.81
67599;BMP280;62026;39.230;9.122;2023-07-13T02:51:27;100690.19;;;27.83
67599;BMP280;62026;39.230;9.122;2023-07-13T02:53:53;100687.28;;;27.88
67599;BMP280;62026;39.230;9.122;2023-07-13T02:56:24;100674.81;;;27.87
67599;BMP280;62026;39.230;9.122;2023-07-13T02:58:51;100678.66;;;27.86
67599;BMP280;62026;39.230;9.122;2023-07-13T03:01:17;100678.41;;;27.79
67599;BMP280;62026;39.230;9.122;2023-07-13T03:03:45;100674.56;;;27.80
67599;BMP280;62026;39.230;9.122;2023-07-13T03:06:14;100674.56;;;27.80
67599;BMP280;62026;39.230;9.122;2023-07-13T03:08:47;100681.72;;;27.85
67599;BMP280;62026;39.230;9.122;2023-07-13T03:11:20;100683.31;;;27.86
67599;BMP280;62026;39.230;9.122;2023-07-13T03:14:04;100690.31;;;27.87
67599;BMP280;62026;39.230;9.122;2023-07-13T03:16:34;100703.44;;;27.85
67599;BMP280;62026;39.230;9.122;2023-07-13T03:19:00;100714.09;;;27.90
67599;BMP280;62026;39.230;9.122;2023-07-13T03:21:27;100711.22;;;27.86
67599;BMP280;62026;39.230;9.122;2023-07-13T03:23:53;100717.81;;;27.85
67599;BMP280;62026;39.230;9.122;2023-07-13T03:26:20;100708.72;;;27.81
67599;BMP280;62026;39.230;9.122;2023-07-13T03:28:47;100711.66;;;27.76
67599;BMP280;62026;39.230;9.122;2023-07-13T03:31:28;100710.34;;;27.82
67599;BMP280;62026;39.230;9.122;2023-07-13T03:33:57;100703.00;;;27.83
67599;BMP280;62026;39.230;9.122;2023-07-13T03:36:28;100688.63;;;27.82
67599;BMP280;62026;39.230;9.122;2023-07-13T03:38:59;100692.44;;;27.81
67599;BMP280;62026;39.230;9.122;2023-07-13T03:41:34;100692.44;;;27.81
67599;BMP280;62026;39.230;9.122;2023-07-13T03:44:00;100689.50;;;27.86
67599;BMP280;62026;39.230;9.122;2023-07-13T03:46:27;100678.41;;;27.79
67599;BMP280;62026;39.230;9.122;2023-07-13T03:48:53;100685.41;;;27.80
67599;BMP280;62026;39.230;9.122;2023-07-13T03:51:20;100690.84;;;27.80
67599;BMP280;62026;39.230;9.122;2023-07-13T03:53:47;100692.44;;;27.81
67599;BMP280;62026;39.230;9.122;2023-07-13T03:56:17;100689.97;;;27.76
67599;BMP280;62026;39.230;9.122;2023-07-13T03:58:47;100677.94;;;27.77
67599;BMP280;62026;39.230;9.122;2023-07-13T04:01:21;100680.22;;;27.75
67599;BMP280;62026;39.230;9.122;2023-07-13T04:03:48;100677.50;;;27.75
67599;BMP280;62026;39.230;9.122;2023-07-13T04:06:29;100685.66;;;27.75
67599;BMP280;62026;39.230;9.122;2023-07-13T04:08:59;100679.75;;;27.73
67599;BMP280;62026;39.230;9.122;2023-07-13T04:11:29;100694.44;;;27.72
67599;BMP280;62026;39.230;9.122;2023-07-13T04:13:57;100703.69;;;27.71
67599;BMP280;62026;39.230;9.122;2023-07-13T04:16:24;100701.34;;;27.70
67599;BMP280;62026;39.230;9.122;2023-07-13T04:18:51;100707.09;;;27.68
67599;BMP280;62026;39.230;9.122;2023-07-13T04:21:21;100709.78;;;27.68
67599;BMP280;62026;39.230;9.122;2023-07-13T04:23:47;100703.25;;;27.69
67599;BMP280;62026;39.230;9.122;2023-07-13T04:26:13;100708.22;;;27.67
67599;BMP280;62026;39.230;9.122;2023-07-13T04:28:39;100717.63;;;27.70
67599;BMP280;62026;39.230;9.122;2023-07-13T04:31:05;100715.34;;;27.72
67599;BMP280;62026;39.230;9.122;2023-07-13T04:33:31;100724.50;;;27.67
67599;BMP280;62026;39.230;9.122;2023-07-13T04:35:58;100716.38;;;27.67
67599;BMP280;62026;39.230;9.122;2023-07-13T04:38:28;100724.00;;;27.65
67599;BMP280;62026;39.230;9.122;2023-07-13T04:41:00;100728.31;;;27.66
67599;BMP280;62026;39.230;9.122;2023-07-13T04:43:28;100714.97;;;27.61
67599;BMP280;62026;39.230;9.122;2023-07-13T04:45:54;100724.22;;;27.60
67599;BMP280;62026;39.230;9.122;2023-07-13T04:48:22;100724.81;;;27.65
67599;BMP280;62026;39.230;9.122;2023-07-13T04:50:55;100727.50;;;27.65
67599;BMP280;62026;39.230;9.122;2023-07-13T04:53:21;100737.44;;;27.61
67599;BMP280;62026;39.230;9.122;2023-07-13T04:55:47;100727.88;;;27.64
67599;BMP280;62026;39.230;9.122;2023-07-13T04:58:13;100729.78;;;27.63
67599;BMP280;62026;39.230;9.122;2023-07-13T05:00:39;100726.88;;;27.69
67599;BMP280;62026;39.230;9.122;2023-07-13T05:03:05;100737.06;;;27.72
67599;BMP280;62026;39.230;9.122;2023-07-13T05:05:32;100748.06;;;27.75
67599;BMP280;62026;39.230;9.122;2023-07-13T05:07:58;100737.22;;;27.75
67599;BMP280;62026;39.230;9.122;2023-07-13T05:10:24;100745.47;;;27.79
67599;BMP280;62026;39.230;9.122;2023-07-13T05:12:50;100768.44;;;27.81
67599;BMP280;62026;39.230;9.122;2023-07-13T05:15:17;100772.41;;;27.84
67599;BMP280;62026;39.230;9.122;2023-07-13T05:17:50;100784.97;;;27.88
67599;BMP280;62026;39.230;9.122;2023-07-13T05:20:18;100781.13;;;27.89
67599;BMP280;62026;39.230;9.122;2023-07-13T05:22:45;100800.63;;;27.91
67599;BMP280;62026;39.230;9.122;2023-07-13T05:25:13;100817.81;;;27.95
67599;BMP280;62026;39.230;9.122;2023-07-13T05:27:40;100815.59;;;27.97
67599;BMP280;62026;39.230;9.122;2023-07-13T05:30:06;100828.94;;;28.02
67599;BMP280;62026;39.230;9.122;2023-07-13T05:32:36;100832.25;;;28.08
67599;BMP280;62026;39.230;9.122;2023-07-13T05:35:02;100832.38;;;28.12
67599;BMP280;62026;39.230;9.122;2023-07-13T05:37:28;100827.91;;;28.16
67599;BMP280;62026;39.230;9.122;2023-07-13T05:39:54;100829.28;;;28.22
67599;BMP280;62026;39.230;9.122;2023-07-13T05:42:20;100833.41;;;28.28
67599;BMP280;62026;39.230;9.122;2023-07-13T05:44:46;100835.44;;;28.31
67599;BMP280;62026;39.230;9.122;2023-07-13T05:47:12;100828.69;;;28.37
67599;BMP280;62026;39.230;9.122;2023-07-13T05:49:41;100814.22;;;28.45
67599;BMP280;62026;39.230;9.122;2023-07-13T05:52:07;100827.28;;;28.51
67599;BMP280;62026;39.230;9.122;2023-07-13T05:54:33;100842.94;;;28.67
67599;BMP280;62026;39.230;9.122;2023-07-13T05:56:59;100850.31;;;28.78
67599;BMP280;62026;39.230;9.122;2023-07-13T05:59:25;100853.09;;;28.90
67599;BMP280;62026;39.230;9.122;2023-07-13T06:01:51;100852.44;;;29.06
67599;BMP280;62026;39.230;9.122;2023-07-13T06:04:19;100867.03;;;29.13
67599;BMP280;62026;39.230;9.122;2023-07-13T06:06:46;100852.56;;;29.21
67599;BMP280;62026;39.230;9.122;2023-07-13T06:09:11;100850.88;;;29.29
67599;BMP280;62026;39.230;9.122;2023-07-13T06:11:37;100858.56;;;29.39
67599;BMP280;62026;39.230;9.122;2023-07-13T06:14:03;100864.91;;;29.43
67599;BMP280;62026;39.230;9.122;2023-07-13T06:16:29;100861.06;;;29.44
67599;BMP280;62026;39.230;9.122;2023-07-13T06:18:55;100855.94;;;29.55
67599;BMP280;62026;39.230;9.122;2023-07-13T06:21:23;100856.75;;;29.67
67599;BMP280;62026;39.230;9.122;2023-07-13T06:23:51;100861.50;;;29.82
67599;BMP280;62026;39.230;9.122;2023-07-13T06:26:19;100858.69;;;29.95
67599;BMP280;62026;39.230;9.122;2023-07-13T06:28:45;100859.84;;;30.06
67599;BMP280;62026;39.230;9.122;2023-07-13T06:31:13;100861.88;;;30.09
67599;BMP280;62026;39.230;9.122;2023-07-13T06:33:40;100854.69;;;30.16
67599;BMP280;62026;39.230;9.122;2023-07-13T06:36:07;100855.41;;;30.29
67599;BMP280;62026;39.230;9.122;2023-07-13T06:38:34;100856.78;;;30.35
67599;BMP280;62026;39.230;9.122;2023-07-13T06:41:00;100842.41;;;30.50
67599;BMP280;62026;39.230;9.122;2023-07-13T06:43:26;100837.75;;;30.51
67599;BMP280;62026;39.230;9.122;2023-07-13T06:45:55;100848.66;;;30.66
67599;BMP280;62026;39.230;9.122;2023-07-13T06:48:22;100838.81;;;30.78
67599;BMP280;62026;39.230;9.122;2023-07-13T06:50:49;100846.03;;;31.01
67599;BMP280;62026;39.230;9.122;2023-07-13T06:53:18;100847.69;;;31.06
67599;BMP280;62026;39.230;9.122;2023-07-13T06:55:45;100845.69;;;31.38
67599;BMP280;62026;39.230;9.122;2023-07-13T06:58:12;100841.63;;;31.47
67599;BMP280;62026;39.230;9.122;2023-07-13T07:00:38;100835.53;;;31.35
67599;BMP280;62026;39.230;9.122;2023-07-13T07:03:06;100843.06;;;31.41
67599;BMP280;62026;39.230;9.122;2023-07-13T07:05:32;100839.78;;;31.51
67599;BMP280;62026;39.230;9.122;2023-07-13T07:07:59;100851.03;;;31.65
67599;BMP280;62026;39.230;9.122;2023-07-13T07:10:25;100857.00;;;31.90
67599;BMP280;62026;39.230;9.122;2023-07-13T07:12:51;100853.50;;;32.09
67599;BMP280;62026;39.230;9.122;2023-07-13T07:15:18;100833.28;;;32.14
67599;BMP280;62026;39.230;9.122;2023-07-13T07:17:44;100846.22;;;32.17
67599;BMP280;62026;39.230;9.122;2023-07-13T07:20:11;100845.34;;;32.32
67599;BMP280;62026;39.230;9.122;2023-07-13T07:22:37;100844.75;;;32.23
67599;BMP280;62026;39.230;9.122;2023-07-13T07:25:03;100846.22;;;32.17
67599;BMP280;62026;39.230;9.122;2023-07-13T07:27:29;100847.16;;;32.24
67599;BMP280;62026;39.230;9.122;2023-07-13T07:29:55;100842.97;;;32.53
67599;BMP280;62026;39.230;9.122;2023-07-13T07:32:23;100848.66;;;32.64
67599;BMP280;62026;39.230;9.122;2023-07-13T07:34:49;100838.50;;;32.90
67599;BMP280;62026;39.230;9.122;2023-07-13T07:37:15;100844.31;;;32.85
67599;BMP280;62026;39.230;9.122;2023-07-13T07:39:43;100835.09;;;32.97
67599;BMP280;62026;39.230;9.122;2023-07-13T07:42:09;100841.41;;;33.01
67599;BMP280;62026;39.230;9.122;2023-07-13T07:44:35;100845.78;;;33.05
67599;BMP280;62026;39.230;9.122;2023-07-13T07:47:01;100841.78;;;33.26
67599;BMP280;62026;39.230;9.122;2023-07-13T07:49:27;100848.53;;;33.05
67599;BMP280;62026;39.230;9.122;2023-07-13T07:51:53;100847.94;;;33.19
67599;BMP280;62026;39.230;9.122;2023-07-13T07:54:19;100842.78;;;33.40
67599;BMP280;62026;39.230;9.122;2023-07-13T07:56:45;100842.78;;;33.70
67599;BMP280;62026;39.230;9.122;2023-07-13T07:59:11;100836.31;;;33.56
67599;BMP280;62026;39.230;9.122;2023-07-13T08:01:37;100822.94;;;33.80
67599;BMP280;62026;39.230;9.122;2023-07-13T08:04:03;100829.81;;;33.08
67599;BMP280;62026;39.230;9.122;2023-07-13T08:06:31;100832.66;;;32.92
67599;BMP280;62026;39.230;9.122;2023-07-13T08:09:00;100825.50;;;32.84
67599;BMP280;62026;39.230;9.122;2023-07-13T08:11:27;100827.53;;;33.13
67599;BMP280;62026;39.230;9.122;2023-07-13T08:13:53;100827.31;;;33.25
67599;BMP280;62026;39.230;9.122;2023-07-13T08:16:19;100817.22;;;33.03
67599;BMP280;62026;39.230;9.122;2023-07-13T08:18:45;100817.22;;;33.03
67599;BMP280;62026;39.230;9.122;2023-07-13T08:21:11;100827.88;;;33.38
67599;BMP280;62026;39.230;9.122;2023-07-13T08:23:37;100841.00;;;33.88
67599;BMP280;62026;39.230;9.122;2023-07-13T08:26:04;100849.78;;;34.01
67599;BMP280;62026;39.230;9.122;2023-07-13T08:28:32;100852.38;;;34.27
67599;BMP280;62026;39.230;9.122;2023-07-13T08:31:07;100845.19;;;34.12
67599;BMP280;62026;39.230;9.122;2023-07-13T08:33:35;100843.53;;;34.04
67599;BMP280;62026;39.230;9.122;2023-07-13T08:36:03;100837.53;;;33.91
67599;BMP280;62026;39.230;9.122;2023-07-13T08:38:29;100830.91;;;33.92
67599;BMP280;62026;39.230;9.122;2023-07-13T08:40:57;100832.47;;;34.30
67599;BMP280;62026;39.230;9.122;2023-07-13T08:43:28;100828.53;;;34.31
67599;BMP280;62026;39.230;9.122;2023-07-13T08:48:45;100831.06;;;34.10
67599;BMP280;62026;39.230;9.122;2023-07-13T08:51:57;100827.63;;;34.61
67599;BMP280;62026;39.230;9.122;2023-07-13T08:54:34;100844.28;;;34.38
67599;BMP280;62026;39.230;9.122;2023-07-13T08:57:15;100847.16;;;34.59
67599;BMP280;62026;39.230;9.122;2023-07-13T08:59:43;100837.03;;;34.67
67599;BMP280;62026;39.230;9.122;2023-07-13T09:02:39;100848.72;;;34.53
67599;BMP280;62026;39.230;9.122;2023-07-13T09:05:30;100839.00;;;34.63
67599;BMP280;62026;39.230;9.122;2023-07-13T09:10:46;100844.22;;;35.50
67599;BMP280;62026;39.230;9.122;2023-07-13T09:13:42;100840.69;;;35.46
67599;BMP280;62026;39.230;9.122;2023-07-13T09:16:10;100842.34;;;35.76
67599;BMP280;62026;39.230;9.122;2023-07-13T09:18:50;100841.56;;;35.79
67599;BMP280;62026;39.230;9.122;2023-07-13T09:21:29;100841.88;;;35.53
67599;BMP280;62026;39.230;9.122;2023-07-13T09:24:38;100834.28;;;34.60
67599;BMP280;62026;39.230;9.122;2023-07-13T09:27:20;100819.59;;;34.41
67599;BMP280;62026;39.230;9.122;2023-07-13T09:30:30;100830.34;;;34.17
67599;BMP280;62026;39.230;9.122;2023-07-13T09:32:57;100835.81;;;34.13
67599;BMP280;62026;39.230;9.122;2023-07-13T09:35:28;100837.56;;;33.95
67599;BMP280;62026;39.230;9.122;2023-07-13T09:38:04;100830.34;;;33.80
67599;BMP280;62026;39.230;9.122;2023-07-13T09:44:12;100834.50;;;34.03
67599;BMP280;62026;39.230;9.122;2023-07-13T09:46:52;100834.66;;;33.81
67599;BMP280;62026;39.230;9.122;2023-07-13T09:49:24;100840.84;;;33.74
67599;BMP280;62026;39.230;9.122;2023-07-13T09:51:59;100838.19;;;33.81
67599;BMP280;62026;39.230;9.122;2023-07-13T09:54:27;100837.81;;;33.83
67599;BMP280;62026;39.230;9.122;2023-07-13T09:57:00;100834.56;;;33.70
67599;BMP280;62026;39.230;9.122;2023-07-13T09:59:36;100833.28;;;33.97
67599;BMP280;62026;39.230;9.122;2023-07-13T10:02:34;100829.59;;;33.83
67599;BMP280;62026;39.230;9.122;2023-07-13T10:05:07;100826.78;;;33.76
67599;BMP280;62026;39.230;9.122;2023-07-13T10:07:43;100824.56;;;33.85
67599;BMP280;62026;39.230;9.122;2023-07-13T10:10:23;100832.66;;;33.44
67599;BMP280;62026;39.230;9.122;2023-07-13T10:12:50;100842.78;;;33.40
67599;BMP280;62026;39.230;9.122;2023-07-13T10:15:22;100832.03;;;33.55
67599;BMP280;62026;39.230;9.122;2023-07-13T10:17:49;100837.72;;;33.72
67599;BMP280;62026;39.230;9.122;2023-07-13T10:20:17;100831.13;;;33.77
67599;BMP280;62026;39.230;9.122;2023-07-13T10:23:00;100837.22;;;33.67
67599;BMP280;62026;39.230;9.122;2023-07-13T10:25:37;100842.38;;;33.72
67599;BMP280;62026;39.230;9.122;2023-07-13T10:28:29;100843.69;;;33.51
67599;BMP280;62026;39.230;9.122;2023-07-13T10:30:58;100836.72;;;33.58
67599;BMP280;62026;39.230;9.122;2023-07-13T10:33:26;100840.84;;;33.74
67599;BMP280;62026;39.230;9.122;2023-07-13T10:36:34;100834.41;;;33.60
67599;BMP280;62026;39.230;9.122;2023-07-13T10:39:04;100841.91;;;33.66
67599;BMP280;62026;39.230;9.122;2023-07-13T10:41:38;100827.31;;;33.55
67599;BMP280;62026;39.230;9.122;2023-07-13T10:44:18;100829.09;;;33.70
67599;BMP280;62026;39.230;9.122;2023-07-13T10:46:46;100835.31;;;33.71
67599;BMP280;62026;39.230;9.122;2023-07-13T10:49:12;100827.53;;;33.73
67599;BMP280;62026;39.230;9.122;2023-07-13T10:51:39;100828.41;;;33.47
67599;BMP280;62026;39.230;9.122;2023-07-13T10:54:19;100827.44;;;33.66
67599;BMP280;62026;39.230;9.122;2023-07-13T10:56:53;100818.91;;;33.41
67599;BMP280;62026;39.230;9.122;2023-07-13T10:59:33;100829.28;;;33.88
67599;BMP280;62026;39.230;9.122;2023-07-13T11:02:22;100830.75;;;33.48
67599;BMP280;62026;39.230;9.122;2023-07-13T11:04:49;100824.44;;;33.44
67599;BMP280;62026;39.230;9.122;2023-07-13T11:07:28;100821.06;;;33.55
67599;BMP280;62026;39.230;9.122;2023-07-13T11:10:05;100821.19;;;33.35
67599;BMP280;62026;39.230;9.122;2023-07-13T11:12:52;100834.06;;;33.35
67599;BMP280;62026;39.230;9.122;2023-07-13T11:15:47;100814.50;;;33.33
67599;BMP280;62026;39.230;9.122;2023-07-13T11:18:23;100813.47;;;33.44
67599;BMP280;62026;39.230;9.122;2023-07-13T11:20:51;100810.44;;;33.49
67599;BMP280;62026;39.230;9.122;2023-07-13T11:23:27;100814.03;;;33.27
67599;BMP280;62026;39.230;9.122;2023-07-13T11:25:53;100805.50;;;33.06
67599;BMP280;62026;39.230;9.122;2023-07-13T11:28:25;100824.16;;;32.97
67599;BMP280;62026;39.230;9.122;2023-07-13T11:36:21;100817.72;;;32.86
67599;BMP280;62026;39.230;9.122;2023-07-13T11:39:02;100814.84;;;32.52
67599;BMP280;62026;39.230;9.122;2023-07-13T11:41:37;100816.47;;;32.57
67599;BMP280;62026;39.230;9.122;2023-07-13T11:44:13;100809.25;;;32.45
67599;BMP280;62026;39.230;9.122;2023-07-13T11:46:46;100817.44;;;32.68
67599;BMP280;62026;39.230;9.122;2023-07-13T11:49:23;100799.28;;;32.56
67599;BMP280;62026;39.230;9.122;2023-07-13T11:51:49;100792.00;;;32.41
67599;BMP280;62026;39.230;9.122;2023-07-13T11:54:29;100804.97;;;32.25
67599;BMP280;62026;39.230;9.122;2023-07-13T11:57:16;100788.22;;;32.49
67599;BMP280;62026;39.230;9.122;2023-07-13T11:59:45;100792.03;;;32.68
67599;BMP280;62026;39.230;9.122;2023-07-13T12:02:36;100791.88;;;32.57
67599;BMP280;62026;39.230;9.122;2023-07-13T12:05:06;100797.56;;;32.48
67599;BMP280;62026;39.230;9.122;2023-07-13T12:07:36;100789.66;;;32.43
67599;BMP280;62026;39.230;9.122;2023-07-13T12:10:27;100793.97;;;32.22
67599;BMP280;62026;39.230;9.122;2023-07-13T12:13:04;100777.94;;;32.20
67599;BMP280;62026;39.230;9.122;2023-07-13T12:18:24;100772.00;;;32.37
67599;BMP280;62026;39.230;9.122;2023-07-13T12:20:58;100771.97;;;32.15
67599;BMP280;62026;39.230;9.122;2023-07-13T12:23:33;100760.22;;;32.33
67599;BMP280;62026;39.230;9.122;2023-07-13T12:26:04;100769.44;;;32.25
67599;BMP280;62026;39.230;9.122;2023-07-13T12:28:39;100768.97;;;32.42
67599;BMP280;62026;39.230;9.122;2023-07-13T12:31:41;100771.06;;;32.52
67599;BMP280;62026;39.230;9.122;2023-07-13T12:34:11;100773.38;;;32.28
67599;BMP280;62026;39.230;9.122;2023-07-13T12:37:08;100766.34;;;32.49
67599;BMP280;62026;39.230;9.122;2023-07-13T12:39:46;100772.59;;;32.27
67599;BMP280;62026;39.230;9.122;2023-07-13T12:42:28;100772.78;;;32.15
67599;BMP280;62026;39.230;9.122;2023-07-13T12:45:21;100764.91;;;32.10
67599;BMP280;62026;39.230;9.122;2023-07-13T12:48:06;100770.94;;;32.00
67599;BMP280;62026;39.230;9.122;2023-07-13T12:50:42;100778.06;;;32.04
67599;BMP280;62026;39.230;9.122;2023-07-13T12:53:27;100767.84;;;32.01
67599;BMP280;62026;39.230;9.122;2023-07-13T12:55:58;100772.47;;;31.97
67599;BMP280;62026;39.230;9.122;2023-07-13T12:58:32;100787.63;;;31.95
67599;BMP280;62026;39.230;9.122;2023-07-13T13:01:04;100778.56;;;31.91
67599;BMP280;62026;39.230;9.122;2023-07-13T13:04:03;100780.16;;;31.92
67599;BMP280;62026;39.230;9.122;2023-07-13T13:06:32;100768.44;;;31.91
67599;BMP280;62026;39.230;9.122;2023-07-13T13:09:01;100774.63;;;31.88
67599;BMP280;62026;39.230;9.122;2023-07-13T13:11:31;100772.19;;;32.02
67599;BMP280;62026;39.230;9.122;2023-07-13T13:13:57;100780.16;;;31.92
67599;BMP280;62026;39.230;9.122;2023-07-13T13:18:54;100771.38;;;32.02
67599;BMP280;62026;39.230;9.122;2023-07-13T13:21:24;100772.81;;;31.77
67599;BMP280;62026;39.230;9.122;2023-07-13T13:23:52;100769.66;;;31.75
67599;BMP280;62026;39.230;9.122;2023-07-13T13:26:21;100784.66;;;31.84
67599;BMP280;62026;39.230;9.122;2023-07-13T13:28:48;100788.06;;;31.97
67599;BMP280;62026;39.230;9.122;2023-07-13T13:31:14;100781.06;;;31.99
67599;BMP280;62026;39.230;9.122;2023-07-13T13:33:45;100776.84;;;32.25
67599;BMP280;62026;39.230;9.122;2023-07-13T13:36:20;100774.75;;;32.37
67599;BMP280;62026;39.230;9.122;2023-07-13T13:38:49;100794.91;;;32.29
67599;BMP280;62026;39.230;9.122;2023-07-13T13:41:16;100783.28;;;32.32
67599;BMP280;62026;39.230;9.122;2023-07-13T13:43:43;100784.03;;;32.33
67599;BMP280;62026;39.230;9.122;2023-07-13T13:46:24;100777.00;;;32.32
67599;BMP280;62026;39.230;9.122;2023-07-13T13:48:51;100784.72;;;32.26
67599;BMP280;62026;39.230;9.122;2023-07-13T13:51:22;100783.13;;;32.25
67599;BMP280;62026;39.230;9.122;2023-07-13T13:53:49;100786.22;;;32.24
67599;BMP280;62026;39.230;9.122;2023-07-13T13:56:18;100777.66;;;32.25
67599;BMP280;62026;39.230;9.122;2023-07-13T13:58:45;100776.78;;;32.21
67599;BMP280;62026;39.230;9.122;2023-07-13T14:01:21;100766.88;;;32.32
67599;BMP280;62026;39.230;9.122;2023-07-13T14:03:50;100766.41;;;32.30
67599;BMP280;62026;39.230;9.122;2023-07-13T14:06:19;100758.34;;;32.37
67599;BMP280;62026;39.230;9.122;2023-07-13T14:08:46;100758.03;;;32.42
67599;BMP280;62026;39.230;9.122;2023-07-13T14:11:16;100757.84;;;32.54
67599;BMP280;62026;39.230;9.122;2023-07-13T14:13:55;100752.88;;;32.37
67599;BMP280;62026;39.230;9.122;2023-07-13T14:16:28;100751.50;;;32.24
67599;BMP280;62026;39.230;9.122;2023-07-13T14:18:56;100746.44;;;32.26
67599;BMP280;62026;39.230;9.122;2023-07-13T14:21:27;100748.44;;;32.29
67599;BMP280;62026;39.230;9.122;2023-07-13T14:23:53;100754.41;;;32.35
67599;BMP280;62026;39.230;9.122;2023-07-13T14:26:25;100744.38;;;32.42
67599;BMP280;62026;39.230;9.122;2023-07-13T14:28:55;100738.91;;;32.46
67599;BMP280;62026;39.230;9.122;2023-07-13T14:31:24;100748.00;;;32.50
67599;BMP280;62026;39.230;9.122;2023-07-13T14:33:50;100747.22;;;32.76
67599;BMP280;62026;39.230;9.122;2023-07-13T14:36:42;100741.84;;;33.09